createdAt,value
2022-09-11T00:01:12.461Z,32.43
2022-09-11T00:04:17.230Z,32.55
2022-09-11T00:07:21.884Z,32.84
2022-09-11T00:10:27.692Z,32.87
2022-09-11T00:13:34.949Z,33.06
2022-09-11T00:16:49.799Z,33.03
2022-09-11T00:19:55.423Z,33.12
2022-09-11T00:23:05.170Z,33.23
2022-09-11T00:26:13.499Z,33.35
2022-09-11T00:29:19.368Z,33.38
2022-09-11T00:32:24.871Z,33.33
2022-09-11T00:35:30.207Z,33.26
2022-09-11T00:38:35.812Z,33.40
2022-09-11T00:41:52.542Z,33.71
2022-09-11T00:45:03.929Z,33.73
2022-09-11T00:48:12.374Z,34.01
2022-09-11T00:51:17.640Z,34.12
2022-09-11T00:54:24.080Z,34.19
2022-09-11T00:57:29.001Z,34.22
2022-09-11T01:00:34.419Z,34.33
2022-09-11T01:03:40.071Z,34.56
2022-09-11T01:06:44.824Z,34.87
2022-09-11T01:09:50.560Z,35.05
2022-09-11T01:13:22.391Z,35.05
2022-09-11T01:17:00.521Z,35.27
2022-09-11T01:20:40.755Z,35.45
2022-09-11T01:24:15.088Z,35.66
2022-09-11T01:27:47.298Z,35.79
2022-09-11T01:30:49.565Z,36.19
2022-09-11T01:34:01.931Z,36.04
2022-09-11T01:37:14.907Z,36.30
2022-09-11T01:40:31.685Z,36.44
2022-09-11T01:43:43.272Z,36.36
2022-09-11T01:46:56.542Z,36.35
2022-09-11T01:50:09.689Z,36.66
2022-09-11T01:53:18.583Z,37.07
2022-09-11T01:56:29.180Z,37.23
2022-09-11T01:59:38.591Z,37.18
2022-09-11T02:02:57.118Z,37.31
2022-09-11T02:06:17.863Z,37.42
2022-09-11T02:09:29.257Z,37.70
2022-09-11T02:12:34.531Z,37.82
2022-09-11T02:15:43.886Z,38.10
2022-09-11T02:19:16.026Z,38.23
2022-09-11T02:22:21.968Z,38.43
2022-09-11T02:25:26.865Z,38.51
2022-09-11T02:28:35.778Z,38.73
2022-09-11T02:31:41.663Z,38.77
2022-09-11T02:34:49.356Z,38.91
2022-09-11T02:38:26.093Z,38.97
2022-09-11T02:41:35.823Z,39.39
2022-09-11T02:45:07.755Z,39.38
2022-09-11T02:48:36.086Z,39.47
2022-09-11T02:51:47.043Z,39.65
2022-09-11T02:55:02.798Z,39.58
2022-09-11T02:58:00.516Z,39.48
2022-09-11T03:01:07.389Z,39.47
2022-09-11T03:04:12.576Z,39.52
2022-09-11T03:07:18.698Z,39.36
2022-09-11T03:10:25.445Z,39.21
2022-09-11T03:13:31.542Z,39.42
2022-09-11T03:16:37.098Z,39.34
2022-09-11T03:19:43.007Z,39.52
2022-09-11T03:22:48.522Z,39.47
2022-09-11T03:25:54.449Z,39.30
2022-09-11T03:29:00.691Z,39.23
2022-09-11T03:32:06.789Z,39.08
2022-09-11T03:35:12.679Z,39.08
2022-09-11T03:38:18.579Z,39.03
2022-09-11T03:41:25.812Z,38.98
2022-09-11T03:44:31.366Z,39.33
2022-09-11T03:47:37.244Z,39.46
2022-09-11T03:50:43.515Z,39.25
2022-09-11T03:53:49.510Z,38.85
2022-09-11T03:56:55.609Z,38.74
2022-09-11T04:00:03.784Z,38.55
2022-09-11T04:03:23.707Z,38.68
2022-09-11T04:06:29.554Z,38.62
2022-09-11T04:09:35.081Z,38.26
2022-09-11T04:12:41.917Z,38.21
2022-09-11T04:15:49.540Z,38.51
2022-09-11T04:18:56.032Z,38.39
2022-09-11T04:22:02.947Z,38.13
2022-09-11T04:25:10.523Z,37.93
2022-09-11T04:28:17.464Z,37.70
2022-09-11T04:31:23.282Z,37.82
2022-09-11T04:34:29.938Z,37.79
2022-09-11T04:37:35.885Z,37.95
2022-09-11T04:40:41.786Z,37.93
2022-09-11T04:43:46.828Z,37.88
2022-09-11T04:46:52.194Z,37.59
2022-09-11T04:49:59.552Z,37.38
2022-09-11T04:53:05.443Z,37.51
2022-09-11T04:56:23.214Z,37.58
2022-09-11T04:59:32.599Z,37.77
2022-09-11T05:02:39.607Z,37.85
2022-09-11T05:05:45.261Z,37.90
2022-09-11T05:08:51.774Z,37.92
2022-09-11T05:11:58.442Z,37.91
2022-09-11T05:15:04.990Z,38.20
2022-09-11T05:18:11.584Z,38.15
2022-09-11T05:21:19.904Z,38.02
2022-09-11T05:24:27.473Z,38.15
2022-09-11T05:27:33.073Z,37.97
2022-09-11T05:30:38.915Z,37.96
2022-09-11T05:33:45.695Z,37.96
2022-09-11T05:36:52.512Z,38.08
2022-09-11T05:43:15.491Z,38.31
2022-09-11T05:46:23.037Z,38.17
2022-09-11T05:49:30.820Z,38.40
2022-09-11T05:52:37.176Z,38.60
2022-09-11T05:55:43.219Z,38.46
2022-09-11T05:58:49.172Z,38.23
2022-09-11T06:01:57.171Z,38.43
2022-09-11T06:05:04.273Z,38.34
2022-09-11T06:08:11.284Z,37.98
2022-09-11T06:11:17.428Z,38.19
2022-09-11T06:14:22.834Z,37.95
2022-09-11T06:17:28.657Z,38.28
2022-09-11T06:20:34.098Z,38.32
2022-09-11T06:23:42.049Z,38.37
2022-09-11T06:26:48.653Z,38.23
2022-09-11T06:29:55.161Z,38.13
2022-09-11T06:33:03.967Z,38.41
2022-09-11T06:36:17.453Z,38.41
2022-09-11T06:39:24.182Z,38.32
2022-09-11T06:42:31.233Z,38.30
2022-09-11T06:45:39.822Z,38.49
2022-09-11T06:48:46.595Z,38.21
2022-09-11T06:51:53.881Z,38.46
2022-09-11T06:55:01.016Z,38.06
2022-09-11T06:58:02.412Z,38.42
2022-09-11T07:01:08.721Z,38.57
2022-09-11T07:04:14.464Z,38.73
2022-09-11T07:07:20.934Z,38.37
2022-09-11T07:10:25.802Z,38.37
2022-09-11T07:13:37.309Z,38.19
2022-09-11T07:16:42.069Z,38.08
2022-09-11T07:19:47.930Z,38.51
2022-09-11T07:22:54.035Z,38.60
2022-09-11T07:26:01.787Z,38.36
2022-09-11T07:29:07.752Z,38.28
2022-09-11T07:32:14.116Z,38.04
2022-09-11T07:35:24.547Z,38.16
2022-09-11T07:38:31.432Z,38.20
2022-09-11T07:41:38.960Z,38.17
2022-09-11T07:44:46.432Z,38.00
2022-09-11T07:47:54.612Z,37.83
2022-09-11T07:51:15.158Z,37.66
2022-09-11T07:54:21.176Z,37.50
2022-09-11T07:57:28.867Z,37.62
2022-09-11T08:00:37.276Z,38.18
2022-09-11T08:03:44.467Z,38.38
2022-09-11T08:06:45.168Z,38.41
2022-09-11T08:09:41.897Z,38.12
2022-09-11T08:12:48.717Z,38.40
2022-09-11T08:16:01.827Z,38.31
2022-09-11T08:19:11.064Z,38.12
2022-09-11T08:22:19.843Z,38.16
2022-09-11T08:25:27.445Z,38.58
2022-09-11T08:28:43.612Z,38.35
2022-09-11T08:31:50.441Z,38.78
2022-09-11T08:34:57.418Z,38.67
2022-09-11T08:38:02.448Z,38.61
2022-09-11T08:41:08.476Z,38.42
2022-09-11T08:44:25.920Z,38.50
2022-09-11T08:47:38.350Z,39.06
2022-09-11T08:50:50.435Z,39.32
2022-09-11T08:53:56.370Z,40.25
2022-09-11T08:57:03.891Z,41.06
2022-09-11T09:00:36.252Z,41.20
2022-09-11T09:04:05.340Z,40.63
2022-09-11T09:07:38.730Z,40.99
2022-09-11T09:11:02.376Z,41.44
2022-09-11T09:14:43.939Z,41.99
2022-09-11T09:17:54.161Z,43.53
2022-09-11T09:21:04.694Z,43.40
2022-09-11T09:24:08.280Z,43.87
2022-09-11T09:27:13.859Z,44.73
2022-09-11T09:30:23.079Z,45.46
2022-09-11T09:33:48.996Z,44.77
2022-09-11T09:37:14.793Z,45.32
2022-09-11T09:40:24.221Z,45.00
2022-09-11T09:43:38.847Z,45.94
2022-09-11T09:46:57.581Z,45.65
2022-09-11T09:50:02.966Z,45.01
2022-09-11T09:53:10.590Z,44.50
2022-09-11T09:56:15.636Z,44.98
2022-09-11T09:59:29.977Z,43.57
2022-09-11T10:03:04.627Z,43.12
2022-09-11T10:06:10.375Z,42.51
2022-09-11T10:09:16.080Z,42.68
2022-09-11T10:12:21.995Z,42.97
2022-09-11T10:15:34.359Z,42.94
2022-09-11T10:18:53.086Z,43.24
2022-09-11T10:21:51.529Z,42.39
2022-09-11T10:24:40.053Z,42.00
2022-09-11T10:27:31.724Z,42.26
2022-09-11T10:30:39.365Z,42.31
2022-09-11T10:33:38.833Z,41.69
2022-09-11T10:36:38.444Z,41.19
2022-09-11T10:39:46.791Z,40.85
2022-09-11T10:42:53.077Z,40.23
2022-09-11T10:46:18.014Z,40.82
2022-09-11T10:49:33.577Z,40.64
2022-09-11T10:52:39.865Z,39.78
2022-09-11T10:55:51.391Z,39.40
2022-09-11T10:58:56.880Z,39.32
2022-09-11T11:02:02.759Z,39.18
2022-09-11T11:05:10.423Z,39.10
2022-09-11T11:08:57.877Z,39.31
2022-09-11T11:12:35.961Z,38.74
2022-09-11T11:15:58.275Z,38.02
2022-09-11T11:19:23.750Z,38.32
2022-09-11T11:22:37.371Z,37.65
2022-09-11T11:26:03.400Z,37.37
2022-09-11T11:29:35.246Z,37.10
2022-09-11T11:32:54.591Z,37.67
2022-09-11T11:36:11.155Z,36.88
2022-09-11T11:39:47.216Z,36.84
2022-09-11T11:43:08.928Z,36.41
2022-09-11T11:46:32.773Z,36.28
2022-09-11T11:49:50.032Z,36.17
2022-09-11T11:53:31.162Z,36.28
2022-09-11T11:57:03.036Z,35.70
2022-09-11T12:00:16.925Z,35.64
2022-09-11T12:03:43.905Z,35.40
2022-09-11T12:06:49.712Z,35.73
2022-09-11T12:10:00.649Z,35.31
2022-09-11T12:13:03.086Z,35.34
2022-09-11T12:16:41.425Z,34.95
2022-09-11T12:19:46.046Z,34.47
2022-09-11T12:22:59.147Z,34.22
2022-09-11T12:26:05.762Z,34.65
2022-09-11T12:29:31.480Z,34.27
2022-09-11T12:32:41.840Z,33.91
2022-09-11T12:36:00.269Z,33.49
2022-09-11T12:39:12.038Z,33.56
2022-09-11T12:42:41.047Z,33.22
2022-09-11T12:45:51.084Z,33.08
2022-09-11T12:49:20.439Z,32.62
2022-09-11T12:52:13.909Z,32.50
2022-09-11T12:55:24.365Z,32.54
2022-09-11T12:58:40.364Z,32.20
2022-09-11T13:01:47.685Z,31.27
2022-09-11T13:04:52.797Z,31.54
2022-09-11T13:08:00.654Z,31.63
2022-09-11T13:11:06.203Z,31.26
2022-09-11T13:14:12.956Z,31.09
2022-09-11T13:17:18.876Z,31.42
2022-09-11T13:20:37.012Z,31.34
2022-09-11T13:23:42.849Z,31.49
2022-09-11T13:26:48.546Z,32.12
2022-09-11T13:29:54.611Z,32.23
2022-09-11T13:33:00.375Z,32.00
2022-09-11T13:36:06.250Z,32.19
2022-09-11T13:39:14.524Z,32.06
2022-09-11T13:42:23.359Z,32.51
2022-09-11T13:45:35.125Z,32.92
2022-09-11T13:48:41.155Z,32.72
2022-09-11T13:51:46.894Z,33.02
2022-09-11T13:54:58.846Z,33.47
2022-09-11T13:58:10.562Z,33.76
2022-09-11T14:01:26.685Z,34.57
2022-09-11T14:04:34.141Z,35.51
2022-09-11T14:07:40.249Z,35.79
2022-09-11T14:10:59.687Z,36.00
2022-09-11T14:14:12.470Z,36.12
2022-09-11T14:17:20.308Z,36.07
2022-09-11T14:20:33.887Z,36.22
2022-09-11T14:23:41.425Z,36.35
2022-09-11T14:26:51.595Z,36.08
2022-09-11T14:29:55.848Z,35.79
2022-09-11T14:33:01.282Z,35.23
2022-09-11T14:36:09.988Z,35.29
2022-09-11T14:39:14.602Z,35.12
2022-09-11T14:42:23.286Z,35.16
2022-09-11T14:45:38.559Z,35.37
2022-09-11T14:48:43.936Z,35.61
2022-09-11T14:51:51.565Z,36.38
2022-09-11T14:54:56.941Z,37.35
2022-09-11T14:58:02.782Z,37.52
2022-09-11T15:01:09.585Z,36.94
2022-09-11T15:04:14.204Z,36.54
2022-09-11T15:07:19.560Z,36.22
2022-09-11T15:10:27.421Z,36.05
2022-09-11T15:13:32.538Z,36.15
2022-09-11T15:16:38.759Z,35.97
2022-09-11T15:19:44.863Z,36.21
2022-09-11T15:22:50.227Z,36.64
2022-09-11T15:25:56.140Z,36.98
2022-09-11T15:29:03.561Z,37.20
2022-09-11T15:32:09.026Z,37.27
2022-09-11T15:35:16.902Z,37.35
2022-09-11T15:38:24.723Z,37.69
2022-09-11T15:41:31.321Z,38.00
2022-09-11T15:44:39.718Z,38.11
2022-09-11T15:47:38.693Z,38.32
2022-09-11T15:50:46.361Z,38.68
2022-09-11T15:53:52.477Z,38.86
2022-09-11T15:56:57.947Z,39.36
2022-09-11T16:00:02.300Z,39.89
2022-09-11T16:03:10.192Z,40.45
2022-09-11T16:06:15.892Z,40.41
2022-09-11T16:09:23.679Z,40.82
2022-09-11T16:12:28.939Z,40.82
2022-09-11T16:15:34.836Z,40.84
2022-09-11T16:18:40.077Z,41.15
2022-09-11T16:21:45.447Z,41.45
2022-09-11T16:24:51.297Z,41.68
2022-09-11T16:27:58.734Z,42.21
2022-09-11T16:31:09.138Z,42.32
2022-09-11T16:34:17.724Z,42.22
2022-09-11T16:37:22.916Z,42.85
2022-09-11T16:40:28.787Z,43.46
2022-09-11T16:43:35.139Z,43.49
2022-09-11T16:46:39.977Z,43.62
2022-09-11T16:52:51.991Z,43.87
2022-09-11T16:56:01.757Z,44.41
2022-09-11T16:59:07.999Z,44.52
2022-09-11T17:02:13.584Z,44.35
2022-09-11T17:05:23.201Z,44.07
2022-09-11T17:08:28.790Z,43.82
2022-09-11T17:11:36.278Z,44.25
2022-09-11T17:14:42.681Z,44.54
2022-09-11T17:17:51.639Z,44.71
2022-09-11T17:20:56.638Z,45.18
2022-09-11T17:24:01.587Z,44.94
2022-09-11T17:27:09.628Z,45.01
2022-09-11T17:30:14.847Z,44.82
2022-09-11T17:33:21.041Z,45.36
2022-09-11T17:36:28.062Z,45.29
2022-09-11T17:39:35.687Z,45.31
2022-09-11T17:42:42.825Z,45.63
2022-09-11T17:45:48.637Z,45.88
2022-09-11T17:48:54.661Z,46.10
2022-09-11T17:52:00.362Z,46.16
2022-09-11T17:55:05.649Z,46.37
2022-09-11T17:58:11.147Z,45.95
2022-09-11T18:01:18.441Z,45.77
2022-09-11T18:04:26.721Z,45.81
2022-09-11T18:07:33.436Z,45.78
2022-09-11T18:10:41.024Z,45.86
2022-09-11T18:13:49.804Z,45.66
2022-09-11T18:16:56.273Z,45.65
2022-09-11T18:20:03.162Z,45.42
2022-09-11T18:23:09.927Z,45.17
2022-09-11T18:26:16.978Z,45.82
2022-09-11T18:29:26.837Z,46.39
2022-09-11T18:32:33.388Z,46.59
2022-09-11T18:35:38.890Z,46.73
2022-09-11T18:38:44.533Z,46.56
2022-09-11T18:41:51.493Z,46.31
2022-09-11T18:44:57.435Z,46.20
2022-09-11T18:48:05.545Z,45.76
2022-09-11T18:51:13.254Z,45.76
2022-09-11T18:54:18.075Z,45.30
2022-09-11T18:57:23.594Z,46.03
2022-09-11T19:00:30.630Z,46.95
2022-09-11T19:03:38.018Z,47.15
2022-09-11T19:06:48.144Z,47.38
2022-09-11T19:09:55.941Z,47.39
2022-09-11T19:13:03.312Z,47.69
2022-09-11T19:16:12.998Z,47.70
2022-09-11T19:19:19.853Z,48.11
2022-09-11T19:22:27.514Z,48.12
2022-09-11T19:25:35.181Z,48.38
2022-09-11T19:28:42.090Z,48.46
2022-09-11T19:31:49.059Z,47.34
2022-09-11T19:34:55.598Z,47.38
2022-09-11T19:38:02.798Z,48.34
2022-09-11T19:41:08.537Z,47.93
2022-09-11T19:44:15.120Z,47.57
2022-09-11T19:47:20.017Z,47.29
2022-09-11T19:50:28.101Z,47.01
2022-09-11T19:53:34.382Z,46.79
2022-09-11T19:56:40.600Z,46.76
2022-09-11T19:59:46.736Z,47.07
2022-09-11T20:02:52.709Z,47.38
2022-09-11T20:06:00.365Z,47.72
2022-09-11T20:12:16.229Z,48.05
2022-09-11T20:15:23.317Z,47.65
2022-09-11T20:18:29.516Z,47.83
2022-09-11T20:21:37.602Z,47.70
2022-09-11T20:24:44.097Z,48.01
2022-09-11T20:27:49.370Z,48.03
2022-09-11T20:30:55.793Z,47.96
2022-09-11T20:34:01.016Z,48.00
2022-09-11T20:37:10.045Z,48.33
2022-09-11T20:40:14.471Z,48.12
2022-09-11T20:43:20.557Z,47.82
2022-09-11T20:46:28.249Z,48.76
2022-09-11T20:49:33.860Z,48.89
2022-09-11T20:52:40.140Z,49.22
2022-09-11T20:55:46.262Z,49.27
2022-09-11T20:58:52.546Z,49.13
2022-09-11T21:01:58.053Z,49.51
2022-09-11T21:05:03.881Z,49.61
2022-09-11T21:08:09.773Z,49.78
2022-09-11T21:11:18.466Z,50.24
2022-09-11T21:14:25.007Z,50.38
2022-09-11T21:17:30.854Z,50.72
2022-09-11T21:20:36.773Z,50.74
2022-09-11T21:23:42.342Z,50.78
2022-09-11T21:26:47.768Z,50.91
2022-09-11T21:29:52.170Z,51.01
2022-09-11T21:32:57.737Z,51.09
2022-09-11T21:36:06.705Z,51.31
2022-09-11T21:39:11.752Z,51.20
2022-09-11T21:42:17.907Z,51.58
2022-09-11T21:45:24.419Z,51.49
2022-09-11T21:48:33.638Z,51.20
2022-09-11T21:51:35.682Z,51.34
2022-09-11T21:54:41.592Z,51.30
2022-09-11T21:57:47.127Z,51.39
2022-09-11T22:00:54.805Z,51.58
2022-09-11T22:04:01.558Z,52.16
2022-09-11T22:07:08.383Z,51.80
2022-09-11T22:10:14.628Z,52.43
2022-09-11T22:13:20.014Z,51.86
2022-09-11T22:16:27.258Z,52.01
2022-09-11T22:19:25.756Z,52.27
2022-09-11T22:22:18.574Z,52.18
2022-09-11T22:25:23.978Z,51.94
2022-09-11T22:28:29.674Z,51.87
2022-09-11T22:31:30.340Z,52.44
2022-09-11T22:34:36.182Z,52.83
2022-09-11T22:37:42.170Z,53.04
2022-09-11T22:40:47.895Z,52.84
2022-09-11T22:43:55.767Z,52.70
2022-09-11T22:47:01.781Z,52.58
2022-09-11T22:50:08.046Z,52.49
2022-09-11T22:53:14.052Z,52.42
2022-09-11T22:56:20.840Z,52.60
2022-09-11T22:59:25.865Z,52.68
2022-09-11T23:02:31.580Z,52.53
2022-09-11T23:05:54.200Z,52.59
2022-09-11T23:08:59.575Z,52.91
2022-09-11T23:12:05.263Z,52.98
2022-09-11T23:15:04.635Z,53.04
2022-09-11T23:18:10.447Z,53.62
2022-09-11T23:21:15.191Z,53.63
2022-09-11T23:24:21.533Z,53.94
2022-09-11T23:27:27.447Z,54.02
2022-09-11T23:30:32.590Z,54.55
2022-09-11T23:33:32.454Z,54.90
2022-09-11T23:36:38.251Z,55.06
2022-09-11T23:39:44.849Z,55.44
2022-09-11T23:42:50.803Z,55.60
2022-09-11T23:45:56.960Z,55.48
2022-09-11T23:49:03.554Z,55.38
2022-09-11T23:52:10.045Z,55.89
2022-09-11T23:55:17.553Z,55.82
2022-09-11T23:58:23.903Z,55.56
